Time;durP1;ratioP1;P1;durP2;ratioP2;P2;SDS_P1;SDS_P2;PMS_P1;PMS_P2;Temp;Humidity;BMP_temperature;BMP_pressure;BME280_temperature;BME280_humidity;BME280_pressure;Samples;Min_cycle;Max_cycle;Signal;HPM_P1;HPM_P2
2022/08/27 00:01:25;;;;;;;7.72;2.33;;;17.20;70.90;;;;;;4990320;28;20150;-77
2022/08/27 00:03:54;;;;;;;4.30;1.92;;;17.20;71.10;;;;;;4975309;28;20062;-77
2022/08/27 00:06:21;;;;;;;5.68;2.13;;;17.10;71.20;;;;;;4990215;28;20055;-77
2022/08/27 00:08:48;;;;;;;7.22;2.40;;;17.00;71.50;;;;;;4975339;28;20055;-77
2022/08/27 00:11:17;;;;;;;7.63;2.27;;;17.00;71.40;;;;;;4990244;28;20493;-77
2022/08/27 00:13:46;;;;;;;8.35;2.05;;;17.00;71.50;;;;;;4975018;28;20055;-77
2022/08/27 00:16:15;;;;;;;6.93;2.30;;;17.00;71.50;;;;;;4957466;28;20047;-77
2022/08/27 00:18:44;;;;;;;6.57;2.85;;;17.00;71.70;;;;;;4990240;28;20469;-77
2022/08/27 00:21:11;;;;;;;7.88;2.42;;;16.90;71.70;;;;;;4975630;28;20059;-77
2022/08/27 00:23:39;;;;;;;7.20;2.10;;;16.90;71.80;;;;;;4956730;28;20050;-77
2022/08/27 00:26:07;;;;;;;5.45;2.40;;;16.80;71.80;;;;;;4974822;28;20139;-77
2022/08/27 00:28:35;;;;;;;6.65;2.45;;;16.80;72.00;;;;;;4973326;28;20058;-77
2022/08/27 00:31:04;;;;;;;7.25;2.90;;;16.70;72.10;;;;;;4973263;28;20055;-77
2022/08/27 00:33:31;;;;;;;6.93;2.30;;;16.70;72.30;;;;;;4973401;28;20114;-77
2022/08/27 00:35:58;;;;;;;8.33;3.33;;;16.70;72.60;;;;;;4974912;28;20062;-77
2022/08/27 00:38:25;;;;;;;8.07;2.53;;;16.60;72.70;;;;;;5005878;28;20053;-77
2022/08/27 00:40:52;;;;;;;6.22;2.38;;;16.60;72.90;;;;;;4973595;28;20051;-77
2022/08/27 00:43:22;;;;;;;7.15;2.50;;;16.50;73.10;;;;;;4974740;28;20054;-77
2022/08/27 00:45:50;;;;;;;6.55;2.63;;;16.50;73.10;;;;;;4973595;28;20480;-77
2022/08/27 00:48:23;;;;;;;7.20;2.90;;;16.40;73.20;;;;;;4974289;28;20083;-77
2022/08/27 00:50:53;;;;;;;7.05;2.30;;;16.40;73.20;;;;;;4973157;28;20607;-77
2022/08/27 00:53:24;;;;;;;7.85;2.60;;;16.40;73.40;;;;;;5005717;28;20051;-77
2022/08/27 00:55:55;;;;;;;7.65;2.47;;;16.40;73.30;;;;;;4974603;28;20087;-77
2022/08/27 00:58:27;;;;;;;8.65;2.90;;;16.40;73.20;;;;;;5006014;28;20505;-77
2022/08/27 01:00:54;;;;;;;7.40;2.80;;;16.50;73.30;;;;;;4989093;28;20560;-78
2022/08/27 01:03:24;;;;;;;5.90;2.40;;;16.50;73.20;;;;;;4972071;28;20465;-77
2022/08/27 01:05:53;;;;;;;6.38;2.53;;;16.50;73.20;;;;;;4972958;28;20072;-77
2022/08/27 01:08:23;;;;;;;7.00;2.80;;;16.50;73.30;;;;;;4973120;28;20564;-77
2022/08/27 01:10:51;;;;;;;6.47;2.47;;;16.50;73.30;;;;;;4974205;28;20059;-77
2022/08/27 01:13:22;;;;;;;11.10;3.00;;;16.50;73.20;;;;;;4973801;28;20075;-77
2022/08/27 01:15:49;;;;;;;6.72;2.17;;;16.50;73.30;;;;;;4974377;28;20502;-77
2022/08/27 01:18:18;;;;;;;7.18;2.63;;;16.50;73.40;;;;;;4973066;28;20051;-77
2022/08/27 01:20:57;;;;;;;7.28;2.58;;;16.50;73.40;;;;;;4972769;28;20055;-77
2022/08/27 01:23:34;;;;;;;6.60;2.67;;;16.50;73.40;;;;;;4973715;28;20138;-77
2022/08/27 01:26:04;;;;;;;6.23;2.47;;;16.40;73.40;;;;;;4973566;28;20051;-77
2022/08/27 01:28:32;;;;;;;7.53;2.55;;;16.40;73.30;;;;;;5005531;28;20050;-77
2022/08/27 01:30:59;;;;;;;7.95;2.67;;;16.50;73.20;;;;;;4956022;28;20059;-77
2022/08/27 01:33:26;;;;;;;7.00;3.03;;;16.50;73.30;;;;;;4973463;28;20135;-77
2022/08/27 01:35:53;;;;;;;8.30;2.80;;;16.50;73.30;;;;;;4988780;28;20050;-77
2022/08/27 01:38:23;;;;;;;7.57;2.70;;;16.50;73.20;;;;;;4971255;28;20062;-77
2022/08/27 01:40:50;;;;;;;6.38;2.70;;;16.40;73.20;;;;;;4971731;28;20055;-77
2022/08/27 01:43:18;;;;;;;5.80;2.55;;;16.40;73.10;;;;;;4972216;28;20062;-77
2022/08/27 01:45:48;;;;;;;6.80;2.70;;;16.40;73.20;;;;;;4970848;28;20051;-77
2022/08/27 01:48:15;;;;;;;6.60;2.42;;;16.40;73.30;;;;;;4972045;28;20082;-77
2022/08/27 01:50:43;;;;;;;6.13;2.40;;;16.40;73.20;;;;;;4986965;28;20051;-77
2022/08/27 01:53:13;;;;;;;6.50;2.28;;;16.40;73.20;;;;;;4972581;28;20055;-77
2022/08/27 01:55:41;;;;;;;5.82;2.35;;;16.40;73.10;;;;;;4973318;28;20059;-77
2022/08/27 01:58:08;;;;;;;6.20;2.60;;;16.40;73.10;;;;;;5004881;28;20158;-78
2022/08/27 02:00:39;;;;;;;7.13;2.70;;;16.40;73.00;;;;;;4973398;28;20894;-77
2022/08/27 02:03:08;;;;;;;7.17;2.40;;;16.40;72.90;;;;;;4973595;28;20070;-77
2022/08/27 02:05:37;;;;;;;7.25;2.45;;;16.40;72.90;;;;;;5004974;28;20110;-77
2022/08/27 02:08:04;;;;;;;7.95;2.95;;;16.40;72.70;;;;;;4972236;28;20051;-77
2022/08/27 02:10:34;;;;;;;7.88;2.78;;;16.40;72.70;;;;;;4973269;28;20138;-77
2022/08/27 02:13:01;;;;;;;8.02;2.88;;;16.40;72.80;;;;;;5005050;28;20048;-77
2022/08/27 02:15:28;;;;;;;4.90;2.30;;;16.40;72.80;;;;;;4972114;28;20134;-77
2022/08/27 02:17:56;;;;;;;6.00;2.50;;;16.40;72.80;;;;;;4971790;28;20055;-77
2022/08/27 02:20:23;;;;;;;7.13;2.72;;;16.30;72.90;;;;;;4972170;28;20085;-77
2022/08/27 02:22:50;;;;;;;6.95;2.67;;;16.30;72.90;;;;;;4971513;28;20051;-77
2022/08/27 02:25:20;;;;;;;6.97;2.88;;;16.30;73.00;;;;;;4972015;28;20054;-77
2022/08/27 02:27:49;;;;;;;6.23;2.60;;;16.20;73.00;;;;;;5004617;28;20548;-77
2022/08/27 02:30:19;;;;;;;7.25;2.95;;;16.20;72.90;;;;;;4972817;28;20079;-77
2022/08/27 02:32:46;;;;;;;6.65;2.47;;;16.20;72.90;;;;;;4973265;28;20055;-77
2022/08/27 02:35:15;;;;;;;6.55;2.60;;;16.20;73.00;;;;;;4971842;28;20059;-77
2022/08/27 02:37:42;;;;;;;7.47;2.92;;;16.20;73.10;;;;;;4971720;28;20079;-77
2022/08/27 02:40:11;;;;;;;6.23;2.50;;;16.20;73.00;;;;;;4971750;28;20906;-77
2022/08/27 02:42:38;;;;;;;8.85;2.80;;;16.20;73.20;;;;;;4972950;28;20055;-77
2022/08/27 02:45:06;;;;;;;8.10;3.22;;;16.10;73.20;;;;;;4972364;28;20077;-77
2022/08/27 02:47:34;;;;;;;5.40;2.85;;;16.10;73.40;;;;;;5004204;28;20059;-77
2022/08/27 02:50:01;;;;;;;7.00;2.75;;;16.10;73.50;;;;;;4971300;28;20055;-77
2022/08/27 02:52:30;;;;;;;7.27;2.07;;;16.00;73.50;;;;;;4987732;28;20051;-77
2022/08/27 02:54:57;;;;;;;8.15;2.65;;;16.00;73.60;;;;;;4955294;28;20107;-77
2022/08/27 02:57:25;;;;;;;5.60;2.47;;;16.00;73.60;;;;;;4973122;28;20154;-77
2022/08/27 02:59:52;;;;;;;6.68;2.50;;;16.00;73.60;;;;;;4972698;28;20051;-77
2022/08/27 03:02:20;;;;;;;7.32;2.83;;;16.00;73.60;;;;;;4972802;28;20135;-77
2022/08/27 03:04:48;;;;;;;6.97;2.50;;;16.00;73.50;;;;;;4971145;28;20076;-77
2022/08/27 03:07:15;;;;;;;8.13;3.22;;;16.00;73.50;;;;;;4972677;28;20445;-77
2022/08/27 03:09:43;;;;;;;8.60;3.00;;;16.00;73.50;;;;;;5003726;28;20085;-77
2022/08/27 03:12:11;;;;;;;4.72;2.50;;;16.00;73.60;;;;;;4972766;28;20138;-77
2022/08/27 03:14:38;;;;;;;7.20;3.08;;;16.00;73.60;;;;;;4971390;28;20051;-77
2022/08/27 03:19:46;;;;;;;7.32;2.65;;;16.00;73.70;;;;;;4972947;28;20114;-77
2022/08/27 03:22:13;;;;;;;6.30;2.45;;;16.00;73.70;;;;;;5003934;28;20466;-77
2022/08/27 03:24:40;;;;;;;7.45;2.78;;;16.00;73.90;;;;;;4970769;28;20055;-77
2022/08/27 03:27:08;;;;;;;6.20;2.60;;;16.00;73.80;;;;;;4969932;28;20051;-77
2022/08/27 03:29:36;;;;;;;7.37;3.20;;;16.00;73.70;;;;;;4972398;28;20078;-77
2022/08/27 03:32:06;;;;;;;7.32;3.03;;;16.00;73.80;;;;;;4974709;28;20049;-77
2022/08/27 03:34:33;;;;;;;6.53;2.63;;;16.00;73.80;;;;;;5003526;28;20051;-77
2022/08/27 03:37:00;;;;;;;6.90;2.70;;;16.00;73.80;;;;;;4972099;28;20138;-77
2022/08/27 03:39:27;;;;;;;6.43;2.90;;;16.00;73.90;;;;;;4970747;28;20106;-77
2022/08/27 03:41:54;;;;;;;8.53;2.80;;;16.00;73.90;;;;;;4972344;28;20058;-77
2022/08/27 03:44:23;;;;;;;6.45;2.90;;;16.00;73.90;;;;;;4972345;28;20122;-77
2022/08/27 03:46:50;;;;;;;8.77;3.13;;;16.00;73.90;;;;;;4987079;28;20054;-77
2022/08/27 03:49:18;;;;;;;6.28;2.40;;;16.00;73.70;;;;;;4970638;28;20052;-77
2022/08/27 03:51:45;;;;;;;7.18;3.15;;;16.00;73.80;;;;;;4970345;28;20827;-77
2022/08/27 03:54:12;;;;;;;6.87;2.63;;;16.00;73.60;;;;;;4972172;28;20158;-77
2022/08/27 03:56:40;;;;;;;5.93;2.70;;;16.00;73.50;;;;;;4970880;28;20051;-77
2022/08/27 03:59:07;;;;;;;7.35;2.75;;;16.10;73.50;;;;;;4970693;28;20051;-77
2022/08/27 04:01:53;;;;;;;8.27;2.80;;;16.10;73.30;;;;;;4971868;28;20051;-77
2022/08/27 04:04:22;;;;;;;6.60;2.80;;;16.10;73.00;;;;;;4972293;28;20505;-77
2022/08/27 04:06:49;;;;;;;6.43;2.60;;;16.10;73.10;;;;;;4972235;28;20414;-77
2022/08/27 04:09:16;;;;;;;7.97;2.72;;;16.10;73.00;;;;;;4971993;28;20058;-77
2022/08/27 04:11:43;;;;;;;5.75;2.65;;;16.10;72.90;;;;;;4970804;28;20052;-77
2022/08/27 04:14:10;;;;;;;7.88;2.88;;;16.10;72.90;;;;;;4971499;28;20509;-77
2022/08/27 04:16:40;;;;;;;6.53;2.72;;;16.20;72.80;;;;;;5002889;28;20134;-77
2022/08/27 04:19:08;;;;;;;6.93;2.47;;;16.20;72.80;;;;;;4969971;28;20051;-77
2022/08/27 04:21:36;;;;;;;8.77;3.15;;;16.20;72.90;;;;;;4970117;28;20051;-77
2022/08/27 04:24:03;;;;;;;7.38;2.85;;;16.10;72.90;;;;;;4970840;28;20054;-77
2022/08/27 04:26:30;;;;;;;6.40;2.67;;;16.20;72.80;;;;;;4971192;28;20051;-77
2022/08/27 04:28:58;;;;;;;7.00;3.08;;;16.10;72.90;;;;;;4971853;28;20089;-77
2022/08/27 04:31:24;;;;;;;7.27;2.70;;;16.10;72.80;;;;;;4954234;28;20126;-77
2022/08/27 04:33:53;;;;;;;7.78;3.03;;;16.10;72.80;;;;;;4971657;28;20063;-77
2022/08/27 04:36:21;;;;;;;6.95;2.60;;;16.10;72.70;;;;;;4970209;28;20059;-77
2022/08/27 04:38:48;;;;;;;6.35;2.67;;;16.10;72.70;;;;;;4987728;28;20473;-77
2022/08/27 04:41:21;;;;;;;6.28;2.65;;;16.10;72.80;;;;;;4957209;28;20512;-77
2022/08/27 04:43:50;;;;;;;7.43;2.70;;;16.10;72.80;;;;;;4956894;28;20107;-77
2022/08/27 04:46:21;;;;;;;5.68;2.50;;;16.00;72.80;;;;;;4974498;28;20125;-77
2022/08/27 04:48:48;;;;;;;7.07;2.95;;;16.00;72.80;;;;;;4989451;28;20065;-77
2022/08/27 04:51:15;;;;;;;7.18;2.42;;;16.00;72.90;;;;;;4974190;28;20115;-77
2022/08/27 04:53:43;;;;;;;6.45;2.38;;;16.00;72.90;;;;;;4989888;28;20067;-77
2022/08/27 04:56:14;;;;;;;7.40;2.47;;;16.00;73.00;;;;;;4989123;28;20054;-77
2022/08/27 04:58:41;;;;;;;4.90;2.25;;;16.00;73.10;;;;;;4989377;28;20047;-77
2022/08/27 05:01:08;;;;;;;7.53;2.63;;;15.90;73.20;;;;;;4988766;28;20058;-77
2022/08/27 05:03:35;;;;;;;6.53;2.60;;;15.80;73.10;;;;;;4988972;28;20047;-77
2022/08/27 05:06:04;;;;;;;4.97;2.40;;;15.90;73.00;;;;;;4974127;28;20067;-77
2022/08/27 05:08:31;;;;;;;6.80;2.63;;;15.90;73.20;;;;;;4956700;28;20138;-77
2022/08/27 05:11:00;;;;;;;6.13;2.40;;;15.80;73.20;;;;;;4956650;28;20586;-77
2022/08/27 05:13:28;;;;;;;8.63;2.90;;;15.90;73.30;;;;;;4973959;28;20061;-77
2022/08/27 05:16:00;;;;;;;8.82;2.75;;;15.90;73.40;;;;;;4989137;28;20055;-77
2022/08/27 05:18:52;;;;;;;6.03;2.50;;;15.90;73.50;;;;;;4974328;28;20532;-77
2022/08/27 05:21:21;;;;;;;7.17;2.30;;;15.80;73.40;;;;;;4967640;28;20047;-77
2022/08/27 05:23:49;;;;;;;6.35;2.40;;;15.80;73.50;;;;;;4988451;28;20167;-77
2022/08/27 05:26:18;;;;;;;5.68;2.42;;;15.80;73.70;;;;;;4974014;28;20058;-77
2022/08/27 05:28:46;;;;;;;6.35;2.83;;;15.80;73.80;;;;;;4974068;28;20083;-78
2022/08/27 05:31:14;;;;;;;7.18;2.42;;;15.80;74.00;;;;;;4973752;28;20135;-78
2022/08/27 05:33:42;;;;;;;10.13;2.67;;;15.80;73.80;;;;;;4989020;28;20564;-77
2022/08/27 05:36:17;;;;;;;6.22;2.45;;;15.80;74.00;;;;;;4940414;28;20723;-78
2022/08/27 05:38:44;;;;;;;6.10;2.67;;;15.70;74.00;;;;;;4974178;28;20070;-77
2022/08/27 05:41:14;;;;;;;5.85;2.22;;;15.70;74.10;;;;;;4988653;28;20541;-78
2022/08/27 05:43:43;;;;;;;6.00;2.60;;;15.70;74.10;;;;;;4973970;28;20051;-78
2022/08/27 05:46:12;;;;;;;6.03;2.80;;;15.70;74.00;;;;;;4989038;28;20047;-78
2022/08/27 05:48:41;;;;;;;5.85;2.55;;;15.70;74.30;;;;;;4973476;28;20084;-78
2022/08/27 05:51:10;;;;;;;6.97;2.22;;;15.70;74.40;;;;;;4955768;28;20047;-78
2022/08/27 05:53:37;;;;;;;6.75;2.10;;;15.70;74.40;;;;;;4955674;28;21059;-78
2022/08/27 05:56:05;;;;;;;4.20;1.98;;;15.70;74.50;;;;;;4987255;28;20508;-78
2022/08/27 06:01:21;;;;;;;4.97;1.73;;;15.70;74.70;;;;;;4968552;28;20561;-79
2022/08/27 06:03:53;;;;;;;5.85;2.00;;;15.80;74.80;;;;;;4955862;28;20055;-78
2022/08/27 06:06:22;;;;;;;5.85;2.25;;;15.80;74.90;;;;;;4979594;28;20397;-78
2022/08/27 06:08:49;;;;;;;4.32;2.20;;;15.80;74.90;;;;;;4955294;28;20090;-78
2022/08/27 06:11:18;;;;;;;6.10;2.10;;;15.80;75.00;;;;;;4970531;28;20062;-79
2022/08/27 06:13:46;;;;;;;5.20;2.55;;;15.80;75.00;;;;;;4955710;28;20154;-79
2022/08/27 06:16:15;;;;;;;6.03;2.20;;;15.80;75.10;;;;;;4973493;28;20063;-79
2022/08/27 06:18:45;;;;;;;5.93;2.40;;;15.80;75.20;;;;;;4988489;28;20051;-79
2022/08/27 06:21:14;;;;;;;5.90;2.20;;;15.80;75.20;;;;;;4955453;28;20082;-79
2022/08/27 06:23:41;;;;;;;5.27;2.23;;;15.80;75.30;;;;;;4987566;28;20055;-80
2022/08/27 06:26:09;;;;;;;5.28;2.40;;;15.90;75.30;;;;;;4988500;28;20047;-79
2022/08/27 06:28:39;;;;;;;6.13;2.47;;;15.90;75.30;;;;;;4988677;28;20118;-79
2022/08/27 06:31:08;;;;;;;6.05;2.30;;;16.00;75.20;;;;;;4973288;28;20102;-80
2022/08/27 06:33:36;;;;;;;5.38;2.28;;;16.00;75.30;;;;;;4988115;28;20051;-79
2022/08/27 06:36:07;;;;;;;7.93;2.40;;;16.00;75.40;;;;;;4973024;28;20061;-79
2022/08/27 06:38:34;;;;;;;5.82;2.20;;;16.00;75.60;;;;;;4955518;28;20054;-79
2022/08/27 06:41:03;;;;;;;7.72;2.58;;;16.00;75.40;;;;;;4987847;28;20058;-79
2022/08/27 06:43:30;;;;;;;5.05;2.10;;;16.00;75.80;;;;;;4972880;28;20062;-80
2022/08/27 06:46:02;;;;;;;6.82;2.30;;;16.10;75.60;;;;;;4955721;28;20054;-80
2022/08/27 06:48:29;;;;;;;7.60;2.20;;;16.10;75.50;;;;;;4987923;28;20537;-80
2022/08/27 06:50:56;;;;;;;6.18;2.30;;;16.20;75.50;;;;;;4987335;28;20054;-79
2022/08/27 06:53:25;;;;;;;5.88;2.00;;;16.20;75.70;;;;;;4977456;28;20572;-79
2022/08/27 06:55:52;;;;;;;6.18;2.30;;;16.20;75.80;;;;;;4991756;28;20061;-79
2022/08/27 06:58:19;;;;;;;4.53;2.00;;;16.30;75.70;;;;;;4974965;28;20545;-79
2022/08/27 07:00:46;;;;;;;4.80;1.80;;;16.30;75.70;;;;;;4989218;28;20061;-79
2022/08/27 07:03:13;;;;;;;5.25;1.83;;;16.40;75.70;;;;;;4972939;28;20050;-79
2022/08/27 07:05:40;;;;;;;6.88;2.17;;;16.40;75.80;;;;;;4973172;28;20078;-79
2022/08/27 07:08:08;;;;;;;5.75;1.67;;;16.40;75.80;;;;;;4990377;28;20055;-79
2022/08/27 07:10:37;;;;;;;4.20;1.60;;;16.40;75.70;;;;;;4990086;28;20054;-79
2022/08/27 07:13:04;;;;;;;5.23;1.90;;;16.50;75.60;;;;;;4972862;28;20521;-79
2022/08/27 07:15:32;;;;;;;7.05;1.85;;;16.50;75.60;;;;;;4991503;28;20121;-79
2022/08/27 07:17:59;;;;;;;6.10;2.13;;;16.60;76.00;;;;;;4991020;28;20563;-79
2022/08/27 07:20:26;;;;;;;6.07;1.70;;;16.60;75.80;;;;;;4974270;28;20552;-79
2022/08/27 07:22:57;;;;;;;6.80;1.90;;;16.70;75.90;;;;;;4991469;28;20077;-79
2022/08/27 07:25:25;;;;;;;7.17;1.80;;;16.70;75.80;;;;;;4974339;28;20584;-79
2022/08/27 07:27:53;;;;;;;7.13;1.95;;;16.80;76.00;;;;;;4974639;28;20051;-79
2022/08/27 07:30:20;;;;;;;6.55;1.60;;;16.80;75.80;;;;;;4991479;28;20051;-79
2022/08/27 07:32:47;;;;;;;6.93;1.58;;;16.90;75.80;;;;;;4974005;28;20039;-79
2022/08/27 07:35:14;;;;;;;7.25;1.88;;;16.90;75.80;;;;;;4974131;28;20087;-79
2022/08/27 07:37:41;;;;;;;6.30;1.60;;;17.00;75.70;;;;;;4974448;28;20134;-79
2022/08/27 07:40:12;;;;;;;6.13;1.60;;;17.00;75.70;;;;;;4987414;28;20055;-80
2022/08/27 07:45:25;;;;;;;6.65;1.50;;;17.10;75.60;;;;;;4934078;28;20047;-80
2022/08/27 07:47:53;;;;;;;4.72;1.30;;;17.20;75.80;;;;;;4952591;28;20065;-79
2022/08/27 07:50:22;;;;;;;4.63;1.40;;;17.20;75.70;;;;;;4985087;28;20044;-79
2022/08/27 07:52:49;;;;;;;7.82;1.50;;;17.30;75.50;;;;;;4967736;28;20051;-78
2022/08/27 07:55:17;;;;;;;4.85;1.30;;;17.40;75.70;;;;;;4973614;28;20051;-78
2022/08/27 07:57:46;;;;;;;5.15;1.20;;;17.40;75.70;;;;;;4982293;28;20138;-78
2022/08/27 08:00:14;;;;;;;5.18;1.50;;;17.50;75.60;;;;;;4980978;28;20054;-78
2022/08/27 08:02:46;;;;;;;5.17;1.10;;;17.50;75.60;;;;;;4978498;28;20055;-78
2022/08/27 08:05:14;;;;;;;4.95;1.23;;;17.60;75.20;;;;;;4969652;28;20051;-77
2022/08/27 08:07:41;;;;;;;3.72;1.50;;;17.60;75.20;;;;;;4977817;28;20154;-78
2022/08/27 08:10:11;;;;;;;6.32;1.70;;;17.70;75.30;;;;;;4969664;28;20047;-78
2022/08/27 08:12:40;;;;;;;5.00;1.58;;;17.80;75.20;;;;;;4970937;28;20403;-78
2022/08/27 08:15:10;;;;;;;5.10;1.13;;;17.80;75.10;;;;;;4974056;28;20071;-79
2022/08/27 08:17:37;;;;;;;5.93;1.10;;;17.90;75.40;;;;;;4976111;28;20051;-79
2022/08/27 08:20:08;;;;;;;5.88;1.33;;;18.00;75.50;;;;;;4987744;28;20081;-79
2022/08/27 08:22:35;;;;;;;5.68;1.42;;;18.00;74.80;;;;;;4956215;28;20106;-78
2022/08/27 08:25:03;;;;;;;5.03;1.40;;;18.10;74.60;;;;;;4973870;28;20134;-79
2022/08/27 08:27:31;;;;;;;6.00;1.10;;;18.10;74.80;;;;;;4957580;28;20058;-80
2022/08/27 08:29:58;;;;;;;4.82;1.10;;;18.20;74.80;;;;;;4975279;28;20580;-79
2022/08/27 08:32:25;;;;;;;4.95;1.30;;;18.30;74.70;;;;;;4976611;28;20054;-79
2022/08/27 08:34:53;;;;;;;6.05;1.30;;;18.30;74.70;;;;;;4994093;28;20055;-80
2022/08/27 08:37:21;;;;;;;6.25;1.35;;;18.40;74.60;;;;;;4981856;28;20130;-79
2022/08/27 08:39:48;;;;;;;4.33;1.33;;;18.50;74.30;;;;;;4988056;28;20049;-79
2022/08/27 08:42:29;;;;;;;5.28;1.17;;;18.60;73.50;;;;;;4960670;28;20081;-79
2022/08/27 08:44:58;;;;;;;6.93;1.42;;;18.60;73.60;;;;;;4958201;28;20134;-80
2022/08/27 08:47:30;;;;;;;5.93;1.27;;;18.70;73.50;;;;;;4989243;28;20479;-78
2022/08/27 08:50:04;;;;;;;5.10;1.35;;;18.80;72.30;;;;;;4979119;28;20130;-79
2022/08/27 08:52:42;;;;;;;4.10;1.30;;;18.80;72.00;;;;;;4986789;28;20043;-79
2022/08/27 08:55:17;;;;;;;5.38;1.10;;;18.90;72.20;;;;;;4975315;28;20462;-79
2022/08/27 08:57:52;;;;;;;5.70;1.10;;;18.90;72.20;;;;;;4969994;28;20075;-80
2022/08/27 09:00:19;;;;;;;6.07;1.30;;;19.00;72.00;;;;;;4977793;28;20055;-79
2022/08/27 09:02:52;;;;;;;6.82;1.40;;;19.00;71.80;;;;;;4987116;28;20138;-79
2022/08/27 09:05:19;;;;;;;5.47;1.03;;;19.10;71.70;;;;;;4964664;28;20116;-78
2022/08/27 09:07:54;;;;;;;6.53;1.10;;;19.10;71.50;;;;;;4983907;28;20066;-78
2022/08/27 09:10:31;;;;;;;5.60;1.20;;;19.10;71.00;;;;;;4962002;28;20046;-79
2022/08/27 09:13:02;;;;;;;6.30;1.10;;;19.20;71.10;;;;;;4964948;28;20138;-80
2022/08/27 09:15:31;;;;;;;6.53;1.30;;;19.20;71.10;;;;;;4966007;28;20416;-80
2022/08/27 09:18:06;;;;;;;5.40;1.03;;;19.20;71.10;;;;;;4981183;28;20061;-80
2022/08/27 09:20:34;;;;;;;5.10;0.82;;;19.30;71.00;;;;;;4980980;28;20086;-79
2022/08/27 09:23:09;;;;;;;7.70;1.20;;;19.30;70.90;;;;;;4979013;28;20142;-78
2022/08/27 09:25:38;;;;;;;3.75;0.90;;;19.30;70.50;;;;;;4965199;28;20053;-78
2022/08/27 09:29:14;;;;;;;3.92;1.30;;;19.40;70.50;;;;;;4964611;28;20055;-78
2022/08/27 09:31:00;;;;;;;5.73;1.10;;;19.40;70.20;;;;;;4963365;28;20548;-79
2022/08/27 09:33:27;;;;;;;5.45;1.10;;;19.50;70.40;;;;;;4988012;28;20047;-79
2022/08/27 09:35:54;;;;;;;6.28;1.48;;;19.50;70.30;;;;;;4967243;28;20790;-79
2022/08/27 09:38:29;;;;;;;6.60;1.38;;;19.50;70.20;;;;;;4977519;28;20051;-79
2022/08/27 09:40:59;;;;;;;6.22;1.10;;;19.60;70.20;;;;;;4978428;28;20058;-78
2022/08/27 09:43:29;;;;;;;5.50;1.00;;;19.70;70.00;;;;;;4984008;28;20059;-79
2022/08/27 09:45:59;;;;;;;7.38;1.13;;;19.70;69.40;;;;;;4988167;28;20134;-79
2022/08/27 09:48:28;;;;;;;4.15;0.70;;;19.70;69.20;;;;;;4956001;28;20061;-78
2022/08/27 09:50:56;;;;;;;9.63;1.50;;;19.70;69.10;;;;;;4973547;28;20062;-79
2022/08/27 09:53:26;;;;;;;6.55;1.25;;;19.70;68.70;;;;;;4973353;28;20055;-79
2022/08/27 09:55:57;;;;;;;4.90;1.00;;;19.80;67.90;;;;;;4973314;28;20114;-79
2022/08/27 09:58:27;;;;;;;6.15;0.90;;;19.80;67.40;;;;;;4955805;28;20059;-80
2022/08/27 10:01:00;;;;;;;6.93;1.20;;;19.90;67.00;;;;;;4963541;28;20141;-81
2022/08/27 10:03:28;;;;;;;4.63;1.13;;;19.90;66.40;;;;;;4961285;28;20082;-81
2022/08/27 10:05:55;;;;;;;11.65;1.48;;;19.90;66.60;;;;;;4988383;28;20061;-79
2022/08/27 10:08:28;;;;;;;4.63;0.90;;;19.90;66.00;;;;;;4988337;28;21059;-80
2022/08/27 10:10:58;;;;;;;8.38;1.00;;;19.90;65.50;;;;;;4956385;28;20537;-80
2022/08/27 10:13:32;;;;;;;5.10;1.10;;;19.90;65.80;;;;;;4977814;28;20055;-79
2022/08/27 10:16:09;;;;;;;4.30;0.95;;;20.00;65.80;;;;;;4965682;28;20051;-78
2022/08/27 10:18:45;;;;;;;7.82;1.00;;;20.00;65.80;;;;;;4983390;28;20894;-79
2022/08/27 10:21:23;;;;;;;6.33;1.13;;;20.00;65.80;;;;;;4981252;28;20173;-78
2022/08/27 10:24:08;;;;;;;4.97;0.80;;;20.00;65.70;;;;;;4958807;28;20051;-80
2022/08/27 10:26:44;;;;;;;4.80;0.80;;;20.10;65.70;;;;;;4972541;28;20157;-80
2022/08/27 10:29:20;;;;;;;4.75;0.85;;;20.10;64.70;;;;;;4987069;28;20062;-80
2022/08/27 10:31:58;;;;;;;4.25;0.57;;;20.10;63.60;;;;;;4958229;28;20057;-80
2022/08/27 10:34:37;;;;;;;4.70;0.87;;;20.10;63.70;;;;;;4953490;28;20818;-79
2022/08/27 10:37:15;;;;;;;4.70;0.90;;;20.10;64.10;;;;;;4968188;28;20430;-77
2022/08/27 10:39:54;;;;;;;6.55;1.00;;;20.10;64.30;;;;;;4981889;28;20053;-77
2022/08/27 10:42:28;;;;;;;4.28;0.82;;;20.10;64.50;;;;;;4964463;28;20055;-79
2022/08/27 10:45:16;;;;;;;4.13;0.93;;;20.20;64.80;;;;;;4977744;28;20065;-79
2022/08/27 10:48:01;;;;;;;5.07;1.13;;;20.30;64.90;;;;;;4980589;28;20138;-79
2022/08/27 10:50:34;;;;;;;5.50;1.00;;;20.30;64.90;;;;;;4974858;28;20533;-78
2022/08/27 10:53:06;;;;;;;6.07;0.93;;;20.30;64.70;;;;;;4975479;28;20133;-74
2022/08/27 10:55:40;;;;;;;5.53;1.20;;;20.40;64.50;;;;;;4983704;28;20083;-77
2022/08/27 10:58:28;;;;;;;6.20;1.05;;;20.40;64.00;;;;;;4957942;28;20130;-76
2022/08/27 11:01:02;;;;;;;4.20;1.20;;;20.50;63.50;;;;;;4976040;28;20130;-77
2022/08/27 11:03:36;;;;;;;4.72;0.98;;;20.50;63.00;;;;;;4971823;28;20055;-78
2022/08/27 11:06:09;;;;;;;4.82;1.13;;;20.50;63.20;;;;;;4954586;28;20089;-79
2022/08/27 11:08:42;;;;;;;4.75;0.93;;;20.50;63.30;;;;;;4987310;28;20441;-78
2022/08/27 11:11:19;;;;;;;5.15;1.02;;;20.50;63.20;;;;;;4953316;28;20059;-79
2022/08/27 11:13:50;;;;;;;5.50;1.10;;;20.50;63.30;;;;;;4966525;28;20059;-79
2022/08/27 11:16:23;;;;;;;4.63;1.10;;;20.50;63.40;;;;;;4965270;28;20051;-77
2022/08/27 11:18:53;;;;;;;6.43;1.08;;;20.60;63.50;;;;;;4952785;28;20055;-79
2022/08/27 11:21:39;;;;;;;3.92;0.80;;;20.60;63.60;;;;;;4958762;28;20051;-79
2022/08/27 11:24:15;;;;;;;3.80;1.02;;;20.60;63.50;;;;;;4966282;28;20059;-79
2022/08/27 11:26:46;;;;;;;7.63;1.23;;;20.60;63.90;;;;;;4967841;28;20051;-79
2022/08/27 11:29:21;;;;;;;6.80;1.40;;;20.70;63.70;;;;;;4970788;28;20051;-77
2022/08/27 11:31:52;;;;;;;5.47;1.02;;;20.70;63.60;;;;;;4952585;28;20050;-77
2022/08/27 11:34:25;;;;;;;7.00;1.10;;;20.80;63.70;;;;;;4984065;28;20167;-78
2022/08/27 11:37:22;;;;;;;6.43;1.02;;;20.80;63.50;;;;;;4960212;28;20062;-76
2022/08/27 11:40:17;;;;;;;7.30;1.10;;;20.80;64.00;;;;;;4967478;28;20181;-75
2022/08/27 11:42:50;;;;;;;4.95;1.05;;;20.90;64.10;;;;;;4969786;28;20063;-78
2022/08/27 11:45:21;;;;;;;6.93;1.23;;;20.90;64.00;;;;;;4969400;28;20901;-79
2022/08/27 11:47:53;;;;;;;7.13;1.25;;;21.00;63.40;;;;;;4973133;28;20171;-78
2022/08/27 11:50:21;;;;;;;6.47;1.13;;;21.00;63.40;;;;;;4967131;28;20829;-78
2022/08/27 11:52:59;;;;;;;5.10;0.80;;;21.00;63.50;;;;;;4994449;28;20058;-78
2022/08/27 11:55:30;;;;;;;6.25;1.05;;;21.10;63.40;;;;;;4991154;28;20055;-79
2022/08/27 11:58:08;;;;;;;8.38;1.38;;;21.10;62.90;;;;;;4974682;28;20093;-78
2022/08/27 12:00:38;;;;;;;5.50;0.85;;;21.10;63.00;;;;;;4992782;28;20540;-78
2022/08/27 12:03:08;;;;;;;4.55;1.05;;;21.20;62.90;;;;;;4975259;28;20061;-78
2022/08/27 12:05:42;;;;;;;5.70;0.93;;;21.30;62.50;;;;;;4974906;28;20415;-77
2022/08/27 12:08:29;;;;;;;6.15;1.27;;;21.30;62.00;;;;;;5008272;28;20054;-78
2022/08/27 12:11:11;;;;;;;7.43;1.30;;;21.40;62.70;;;;;;4981504;28;20054;-78
2022/08/27 12:13:44;;;;;;;3.92;0.85;;;21.40;62.50;;;;;;4973974;28;20139;-78
2022/08/27 12:16:24;;;;;;;6.32;1.08;;;21.50;62.50;;;;;;4977815;28;20649;-78
2022/08/27 12:19:08;;;;;;;6.60;1.00;;;21.50;62.60;;;;;;4982920;28;20053;-78
2022/08/27 12:21:49;;;;;;;5.45;0.90;;;21.50;62.60;;;;;;4982844;28;20055;-78
2022/08/27 12:24:43;;;;;;;5.70;1.05;;;21.60;62.50;;;;;;4982672;28;20110;-78
2022/08/27 12:27:24;;;;;;;7.20;1.30;;;21.60;62.80;;;;;;4988024;28;20134;-78
2022/08/27 12:29:56;;;;;;;6.03;1.20;;;21.70;62.60;;;;;;4982871;28;20047;-78
2022/08/27 12:32:30;;;;;;;5.83;1.23;;;21.80;62.20;;;;;;4974959;28;20085;-78
2022/08/27 12:35:09;;;;;;;10.63;1.50;;;21.90;61.00;;;;;;4974785;28;20138;-78
2022/08/27 12:37:40;;;;;;;6.88;1.13;;;21.90;60.00;;;;;;4956970;28;20047;-78
2022/08/27 12:40:29;;;;;;;4.93;1.00;;;22.00;60.00;;;;;;4988523;28;20066;-78
2022/08/27 12:43:06;;;;;;;8.38;1.10;;;22.10;60.20;;;;;;4969621;28;20166;-78
2022/08/27 12:45:43;;;;;;;4.50;0.70;;;22.10;59.80;;;;;;4956665;28;20533;-78
2022/08/27 12:48:11;;;;;;;5.90;1.00;;;22.10;59.40;;;;;;4958484;28;20057;-78
2022/08/27 12:50:38;;;;;;;4.82;1.00;;;22.10;59.60;;;;;;4972826;28;20194;-78
2022/08/27 12:53:31;;;;;;;5.25;1.00;;;22.20;59.30;;;;;;4971135;28;20047;-79
2022/08/27 12:56:11;;;;;;;4.95;0.85;;;22.20;60.00;;;;;;4977525;28;20079;-79
2022/08/27 12:58:49;;;;;;;5.30;0.97;;;22.20;59.10;;;;;;4964514;28;20661;-79
2022/08/27 13:01:44;;;;;;;4.30;0.65;;;22.30;58.30;;;;;;4954963;28;20131;-78
2022/08/27 13:04:21;;;;;;;4.63;0.82;;;22.30;58.50;;;;;;4966019;28;20052;-78
2022/08/27 13:06:48;;;;;;;4.88;0.77;;;22.20;58.40;;;;;;4969267;28;20059;-79
2022/08/27 13:09:15;;;;;;;5.80;1.00;;;22.30;58.60;;;;;;4988937;28;20051;-79
2022/08/27 13:11:48;;;;;;;4.57;0.90;;;22.30;58.60;;;;;;4989227;28;20130;-79